Time;durP1;ratioP1;P1;durP2;ratioP2;P2;SDS_P1;SDS_P2;PMS_P1;PMS_P2;Temp;Humidity;BMP_temperature;BMP_pressure;BME280_temperature;BME280_humidity;BME280_pressure;Samples;Min_cycle;Max_cycle;Signal;HPM_P1;HPM_P2
2023/05/05 00:01:37;;;;;;;5.07;4.60;;;12.00;99.90;;;12.08;70.58;95327.50;4992873;28;20553;-57
2023/05/05 00:04:04;;;;;;;5.60;5.10;;;12.00;99.90;;;12.07;70.68;95323.22;4991593;28;20539;-66
2023/05/05 00:06:32;;;;;;;5.30;4.90;;;12.00;99.90;;;12.06;70.82;95323.38;4990449;28;20990;-56
2023/05/05 00:08:59;;;;;;;5.43;4.93;;;12.00;99.90;;;12.06;70.59;95326.00;4996700;28;20531;-66
2023/05/05 00:11:28;;;;;;;5.50;5.00;;;12.00;99.90;;;12.03;70.87;95327.09;4996970;28;20457;-57
2023/05/05 00:13:55;;;;;;;7.17;4.50;;;12.00;99.90;;;12.01;70.85;95326.41;4994861;28;20477;-57
2023/05/05 00:16:22;;;;;;;5.10;4.60;;;11.90;99.90;;;11.99;70.85;95329.19;4996371;28;20528;-57
2023/05/05 00:18:50;;;;;;;12.10;5.53;;;11.90;99.90;;;11.97;71.29;95322.38;5004870;28;20514;-68
2023/05/05 00:21:17;;;;;;;6.87;5.30;;;11.90;99.90;;;11.94;71.11;95331.38;4998449;28;20466;-67
2023/05/05 00:23:45;;;;;;;5.00;4.60;;;11.90;99.90;;;11.91;71.17;95329.00;4999280;28;20499;-67
2023/05/05 00:26:12;;;;;;;8.80;5.30;;;11.90;99.90;;;11.89;71.27;95323.03;5002347;28;20453;-57
2023/05/05 00:28:41;;;;;;;6.13;5.53;;;11.80;99.90;;;11.87;71.56;95324.97;4988874;28;20961;-67
2023/05/05 00:31:08;;;;;;;7.37;5.70;;;11.80;99.90;;;11.84;71.50;95320.81;5001498;28;20453;-68
2023/05/05 00:33:36;;;;;;;6.23;5.70;;;11.80;99.90;;;11.83;71.36;95327.06;5000652;28;20477;-56
2023/05/05 00:36:03;;;;;;;6.60;5.90;;;11.80;99.90;;;11.80;71.34;95322.06;4998209;28;20644;-67
2023/05/05 00:38:31;;;;;;;5.50;5.00;;;11.80;99.90;;;11.78;71.45;95325.81;4995796;28;20917;-68
2023/05/05 00:40:58;;;;;;;5.93;5.23;;;11.70;99.90;;;11.77;71.50;95324.97;4996912;28;21077;-68
2023/05/05 00:43:25;;;;;;;6.00;5.50;;;11.80;99.90;;;11.76;71.42;95325.13;4999391;28;21008;-66
2023/05/05 00:45:58;;;;;;;6.00;5.40;;;11.70;99.90;;;11.74;71.87;95330.53;4995807;28;20462;-66
2023/05/05 00:48:25;;;;;;;6.60;5.77;;;11.70;99.90;;;11.74;71.50;95327.03;4994871;28;20557;-67
2023/05/05 00:50:52;;;;;;;5.00;4.60;;;11.70;99.90;;;11.74;71.52;95333.16;4999759;28;20538;-66
2023/05/05 00:53:20;;;;;;;8.00;5.67;;;11.70;99.90;;;11.74;71.42;95324.41;4995992;28;20484;-57
2023/05/05 00:55:47;;;;;;;6.00;5.40;;;11.70;99.90;;;11.71;71.18;95324.66;4994936;28;21049;-68
2023/05/05 00:58:14;;;;;;;6.67;4.90;;;11.70;99.90;;;11.72;71.01;95323.72;4999602;28;20482;-67
2023/05/05 01:00:42;;;;;;;6.40;5.37;;;11.70;99.90;;;11.71;71.08;95330.78;4995819;28;20454;-66
2023/05/05 01:03:11;;;;;;;4.57;4.27;;;11.70;99.90;;;11.70;71.09;95329.13;4997243;28;20533;-67
2023/05/05 01:05:54;;;;;;;5.40;4.57;;;11.70;99.90;;;11.70;71.17;95323.03;4990116;28;20461;-67
2023/05/05 01:08:32;;;;;;;8.17;4.73;;;11.60;99.90;;;11.69;71.38;95327.44;4992949;28;20525;-68
2023/05/05 01:11:03;;;;;;;4.93;4.53;;;11.70;99.90;;;11.69;71.04;95321.34;4995348;28;20458;-67
2023/05/05 01:13:37;;;;;;;5.93;5.00;;;11.60;99.90;;;11.67;70.99;95316.22;4994867;28;20477;-58
2023/05/05 01:16:08;;;;;;;4.40;4.00;;;11.60;99.90;;;11.65;71.13;95324.25;4992377;28;21282;-68
2023/05/05 01:18:41;;;;;;;5.03;4.43;;;11.60;99.90;;;11.65;71.43;95315.53;4996007;28;20480;-57
2023/05/05 01:21:14;;;;;;;5.97;4.93;;;11.60;99.90;;;11.62;71.45;95311.34;4994035;28;20963;-56
2023/05/05 01:24:24;;;;;;;4.87;4.43;;;11.60;99.90;;;11.59;71.29;95322.16;4994162;28;20495;-68
2023/05/05 01:27:09;;;;;;;7.27;5.47;;;11.60;99.90;;;11.57;71.08;95310.94;4991626;28;20546;-66
2023/05/05 01:29:52;;;;;;;4.73;4.20;;;11.60;99.90;;;11.56;71.35;95316.34;4988421;28;20453;-57
2023/05/05 01:32:24;;;;;;;4.83;4.53;;;11.50;99.90;;;11.54;71.27;95321.72;4992315;28;20474;-66
2023/05/05 01:34:54;;;;;;;5.03;4.63;;;11.50;99.90;;;11.53;71.30;95321.88;4999456;28;20449;-67
2023/05/05 01:37:24;;;;;;;5.30;4.53;;;11.50;99.90;;;11.51;71.29;95318.50;4994807;28;20485;-58
2023/05/05 01:39:54;;;;;;;5.63;5.07;;;11.50;99.90;;;11.49;71.46;95305.47;4996869;28;20530;-67
2023/05/05 01:42:22;;;;;;;8.00;4.30;;;11.50;99.90;;;11.48;71.40;95309.91;5006630;28;20489;-68
2023/05/05 01:44:49;;;;;;;6.17;4.73;;;11.50;99.90;;;11.48;71.42;95315.19;4994599;28;20503;-67
2023/05/05 01:47:17;;;;;;;5.30;4.80;;;11.50;99.90;;;11.47;71.56;95302.97;5003240;28;20576;-57
2023/05/05 01:49:47;;;;;;;4.97;4.50;;;11.50;99.90;;;11.46;71.58;95306.59;4997450;28;20466;-58
2023/05/05 01:52:14;;;;;;;4.63;4.30;;;11.40;99.90;;;11.46;71.19;95298.69;4996430;28;20649;-66
2023/05/05 01:54:42;;;;;;;5.40;4.90;;;11.40;99.90;;;11.46;71.33;95298.69;4990896;28;20454;-68
2023/05/05 01:57:10;;;;;;;4.93;4.50;;;11.40;99.90;;;11.46;71.19;95296.06;4997690;28;20466;-67
2023/05/05 01:59:38;;;;;;;13.43;5.23;;;11.40;99.90;;;11.44;71.53;95295.34;4997982;28;20512;-56
2023/05/05 02:02:06;;;;;;;6.63;6.13;;;11.40;99.90;;;11.42;71.26;95294.66;4994194;28;20478;-67
2023/05/05 02:04:33;;;;;;;5.03;4.63;;;11.40;99.90;;;11.40;71.49;95291.34;4998939;28;20799;-57
2023/05/05 02:07:02;;;;;;;4.50;4.20;;;11.40;99.90;;;11.39;71.49;95292.28;4990122;28;20478;-68
2023/05/05 02:09:29;;;;;;;5.63;5.10;;;11.40;99.90;;;11.38;71.44;95293.25;4996062;28;20982;-67
2023/05/05 02:11:58;;;;;;;5.93;4.40;;;11.40;99.90;;;11.37;71.45;95296.00;4989005;28;20458;-67
2023/05/05 02:14:26;;;;;;;6.20;5.10;;;11.30;99.90;;;11.36;71.24;95303.09;4993592;28;20445;-57
2023/05/05 02:16:54;;;;;;;4.30;4.00;;;11.30;99.90;;;11.34;71.21;95301.53;4993638;28;20477;-57
2023/05/05 02:19:22;;;;;;;4.43;4.10;;;11.30;99.90;;;11.33;71.11;95303.34;4995980;28;20548;-58
2023/05/05 02:21:49;;;;;;;4.40;4.07;;;11.30;99.90;;;11.33;71.38;95295.47;4993775;28;20457;-58
2023/05/05 02:24:18;;;;;;;8.73;4.30;;;11.30;99.90;;;11.32;71.28;95293.78;4994538;28;20575;-67
2023/05/05 02:26:46;;;;;;;5.67;4.80;;;11.30;99.90;;;11.32;71.11;95296.41;4996129;28;20456;-67
2023/05/05 02:29:17;;;;;;;4.63;4.00;;;11.30;99.90;;;11.29;71.17;95288.78;4994561;28;20481;-58
2023/05/05 02:31:46;;;;;;;4.93;4.47;;;11.30;99.90;;;11.29;71.50;95294.06;4994580;28;20462;-68
2023/05/05 02:34:14;;;;;;;5.03;4.50;;;11.30;99.90;;;11.31;71.26;95297.41;4998959;28;20962;-68
2023/05/05 02:36:41;;;;;;;4.63;3.97;;;11.30;99.90;;;11.28;70.84;95290.59;4991075;28;20757;-69
2023/05/05 02:39:13;;;;;;;4.80;4.30;;;11.30;99.90;;;11.28;70.94;95287.13;4992349;28;20476;-59
2023/05/05 02:41:43;;;;;;;3.07;2.87;;;11.30;99.90;;;11.29;70.92;95299.31;4991146;28;20494;-58
2023/05/05 02:44:10;;;;;;;4.13;3.73;;;11.20;99.90;;;11.27;70.66;95291.56;4996896;28;20596;-67
2023/05/05 02:46:38;;;;;;;8.53;4.13;;;11.30;99.90;;;11.29;70.18;95294.06;4994517;28;20442;-59
2023/05/05 02:49:05;;;;;;;4.97;4.53;;;11.30;99.90;;;11.28;70.53;95284.50;4995082;28;20563;-58
2023/05/05 02:51:33;;;;;;;5.40;4.90;;;11.30;99.90;;;11.28;70.77;95293.22;4992363;28;20523;-68
2023/05/05 02:54:00;;;;;;;6.67;5.00;;;11.30;99.90;;;11.32;70.93;95287.69;4992770;28;20513;-59
2023/05/05 02:56:34;;;;;;;8.33;6.63;;;11.30;99.90;;;11.33;70.99;95286.72;4993826;28;20537;-59
2023/05/05 02:59:13;;;;;;;8.17;7.30;;;11.30;99.90;;;11.35;71.11;95276.88;4996750;28;20481;-69
2023/05/05 03:01:55;;;;;;;8.83;6.07;;;11.30;99.90;;;11.36;71.43;95282.03;4988706;28;20457;-57
2023/05/05 03:04:27;;;;;;;10.80;6.87;;;11.30;99.90;;;11.37;71.49;95281.06;4991450;28;20570;-58
2023/05/05 03:06:58;;;;;;;6.43;5.83;;;11.30;99.90;;;11.38;71.22;95290.63;4998117;28;20477;-69
2023/05/05 03:09:30;;;;;;;8.00;7.10;;;11.40;99.90;;;11.39;71.35;95289.66;4998761;28;20465;-66
2023/05/05 03:12:01;;;;;;;7.60;6.90;;;11.40;99.90;;;11.41;71.38;95282.44;4995448;28;20461;-67
2023/05/05 03:14:31;;;;;;;6.90;6.10;;;11.40;99.90;;;11.42;71.59;95283.28;4993643;28;20810;-57
2023/05/05 03:16:58;;;;;;;13.13;6.90;;;11.40;99.90;;;11.43;71.54;95290.22;4990467;28;20456;-57
2023/05/05 03:19:25;;;;;;;11.50;6.77;;;11.40;99.90;;;11.42;71.16;95289.38;4993950;28;20454;-68
2023/05/05 03:21:52;;;;;;;7.60;6.80;;;11.40;99.90;;;11.43;71.40;95291.06;4992732;28;20457;-57
2023/05/05 03:24:21;;;;;;;8.07;7.27;;;11.40;99.90;;;11.42;71.30;95294.66;4993456;28;20497;-69
2023/05/05 03:26:49;;;;;;;6.83;6.23;;;11.40;99.90;;;11.42;71.07;95291.19;4995428;28;20964;-56
2023/05/05 03:29:17;;;;;;;7.80;6.63;;;11.40;99.90;;;11.43;71.22;95291.06;4992710;28;20914;-68
2023/05/05 03:31:45;;;;;;;10.07;7.13;;;11.40;99.90;;;11.42;71.15;95297.28;4992121;28;20534;-57
2023/05/05 03:34:12;;;;;;;8.53;7.43;;;11.40;99.90;;;11.43;71.69;95291.06;4997546;28;20477;-59
2023/05/05 03:36:40;;;;;;;9.00;6.57;;;11.40;99.90;;;11.46;71.95;95289.94;4988808;28;20451;-68
2023/05/05 03:39:07;;;;;;;11.60;6.53;;;11.50;99.90;;;11.47;71.25;95292.44;4996168;28;20454;-59
2023/05/05 03:41:35;;;;;;;7.37;6.60;;;11.40;99.90;;;11.47;71.09;95287.16;4994691;28;20463;-58
2023/05/05 03:44:02;;;;;;;11.10;6.47;;;11.50;99.90;;;11.45;70.71;95297.03;4996159;28;20498;-65
2023/05/05 03:46:29;;;;;;;7.13;6.20;;;11.40;99.90;;;11.45;70.90;95294.38;4998462;28;20616;-65
2023/05/05 03:48:58;;;;;;;6.57;5.93;;;11.40;99.90;;;11.47;70.89;95299.53;4998506;28;20568;-58
2023/05/05 03:51:25;;;;;;;7.17;6.13;;;11.40;99.90;;;11.49;70.81;95300.22;5001616;28;20460;-58
2023/05/05 03:53:53;;;;;;;9.60;6.40;;;11.50;99.90;;;11.53;70.98;95298.97;4997263;28;20584;-57
2023/05/05 03:56:20;;;;;;;10.83;5.97;;;11.50;99.90;;;11.55;71.23;95304.13;5000685;28;20458;-66
2023/05/05 03:58:47;;;;;;;11.03;6.83;;;11.50;99.90;;;11.59;71.48;95308.97;5003190;28;20481;-57
2023/05/05 04:01:14;;;;;;;8.37;7.00;;;11.60;99.90;;;11.65;71.65;95304.97;4996443;28;20612;-65
2023/05/05 04:03:42;;;;;;;10.00;6.53;;;11.60;99.90;;;11.73;71.79;95306.94;5001738;28;20480;-65
2023/05/05 04:06:10;;;;;;;6.20;5.60;;;11.70;99.90;;;11.77;71.50;95314.44;5000871;28;20552;-57
2023/05/05 04:08:39;;;;;;;7.97;6.40;;;11.70;99.90;;;11.81;71.09;95315.81;5001962;28;20814;-59
2023/05/05 04:11:06;;;;;;;6.90;6.00;;;11.70;99.90;;;11.86;71.11;95317.22;5002058;28;20920;-65
2023/05/05 04:13:34;;;;;;;10.27;6.63;;;11.80;99.90;;;11.88;70.96;95317.91;4998636;28;21024;-58
2023/05/05 04:16:01;;;;;;;9.27;5.97;;;11.80;99.90;;;11.91;70.23;95312.34;5004942;28;20464;-68
2023/05/05 04:18:28;;;;;;;7.80;6.27;;;11.90;99.90;;;11.93;70.30;95319.19;4997076;28;20481;-59
2023/05/05 04:20:55;;;;;;;7.47;5.20;;;11.90;99.90;;;11.95;70.10;95317.25;5000053;28;20462;-66
2023/05/05 04:23:24;;;;;;;6.87;5.37;;;11.90;99.90;;;11.95;70.01;95316.44;4999514;28;20492;-67
2023/05/05 04:25:51;;;;;;;7.53;6.10;;;11.90;99.90;;;11.94;69.79;95315.56;5002841;28;20477;-69
2023/05/05 04:28:19;;;;;;;6.27;5.77;;;11.90;99.90;;;11.95;69.74;95317.25;4999230;28;20461;-67
2023/05/05 04:30:47;;;;;;;5.93;5.20;;;11.90;99.90;;;11.95;69.87;95316.44;5001136;28;20942;-57
2023/05/05 04:33:14;;;;;;;6.87;6.03;;;11.90;99.90;;;11.95;69.43;95316.44;4997343;28;20473;-67
2023/05/05 04:35:41;;;;;;;8.00;7.07;;;11.90;99.90;;;11.95;69.37;95325.16;4998892;28;20469;-68
2023/05/05 04:38:08;;;;;;;7.20;6.00;;;11.90;99.90;;;11.95;69.59;95322.53;4994099;28;20473;-67
2023/05/05 04:40:40;;;;;;;7.70;6.87;;;11.90;99.90;;;11.95;69.67;95311.97;4999598;28;20458;-57
2023/05/05 04:43:08;;;;;;;9.10;6.10;;;11.90;99.90;;;11.99;69.94;95323.94;4991138;28;20475;-58
2023/05/05 04:45:35;;;;;;;8.63;6.57;;;11.90;99.90;;;12.02;69.93;95321.00;4997677;28;20502;-67
2023/05/05 04:48:03;;;;;;;13.47;6.63;;;12.00;99.90;;;12.06;70.07;95323.38;4999742;28;20476;-56
2023/05/05 04:50:31;;;;;;;7.70;6.63;;;12.00;99.90;;;12.10;69.39;95325.59;4997965;28;20454;-58
2023/05/05 04:52:58;;;;;;;14.83;6.00;;;12.00;99.90;;;12.14;69.90;95319.06;4997604;28;21034;-68
2023/05/05 04:55:25;;;;;;;10.50;7.70;;;12.10;99.90;;;12.17;70.07;95317.97;4997266;28;20461;-68
2023/05/05 04:57:54;;;;;;;7.50;6.63;;;12.10;99.90;;;12.19;69.54;95323.91;4994084;28;20490;-68
2023/05/05 05:00:22;;;;;;;8.63;6.73;;;12.10;99.90;;;12.20;69.26;95326.41;4996769;28;20465;-60
2023/05/05 05:02:49;;;;;;;7.63;6.80;;;12.10;99.90;;;12.23;69.42;95329.75;4988073;28;20559;-59
2023/05/05 05:05:17;;;;;;;7.00;6.30;;;12.20;99.90;;;12.24;69.31;95327.00;4994113;28;20597;-69
2023/05/05 05:07:44;;;;;;;8.07;6.77;;;12.20;99.90;;;12.26;69.27;95334.75;4999299;28;20998;-68
2023/05/05 05:10:12;;;;;;;6.87;5.70;;;12.20;99.90;;;12.31;69.46;95340.44;4986524;28;20548;-58
2023/05/05 05:12:39;;;;;;;12.53;7.77;;;12.20;99.90;;;12.34;69.32;95334.91;4998907;28;20481;-70
2023/05/05 05:15:10;;;;;;;8.67;7.20;;;12.30;99.90;;;12.38;68.97;95337.13;4996321;28;20449;-58
2023/05/05 05:17:37;;;;;;;10.07;7.23;;;12.30;99.90;;;12.43;69.56;95333.25;4994790;28;20546;-68
2023/05/05 05:20:06;;;;;;;18.50;6.90;;;12.40;99.90;;;12.52;69.01;95346.41;4995178;28;20457;-58
2023/05/05 05:22:37;;;;;;;11.90;6.60;;;12.50;99.90;;;12.61;69.09;95343.91;4994957;28;20477;-59
2023/05/05 05:25:05;;;;;;;7.67;6.90;;;12.50;99.90;;;12.69;68.47;95351.97;4989303;28;20819;-58
2023/05/05 05:27:32;;;;;;;7.70;6.40;;;12.60;99.90;;;12.78;68.15;95339.72;4993038;28;20481;-59
2023/05/05 05:29:59;;;;;;;12.47;6.60;;;12.70;99.90;;;12.84;67.83;95340.00;4990169;28;20477;-71
2023/05/05 05:32:28;;;;;;;8.60;6.23;;;12.70;99.90;;;12.90;67.60;95349.13;4992183;28;20975;-59
2023/05/05 05:34:55;;;;;;;7.77;5.97;;;12.80;99.90;;;12.96;67.57;95355.66;4990274;28;20495;-59
2023/05/05 05:37:23;;;;;;;13.73;8.80;;;12.80;99.90;;;12.99;67.33;95355.38;4997062;28;20503;-59
2023/05/05 05:39:53;;;;;;;9.10;6.73;;;12.90;99.90;;;13.04;67.45;95355.78;4993730;28;20456;-69
2023/05/05 05:42:20;;;;;;;7.10;6.40;;;12.90;99.90;;;13.09;67.04;95356.19;4993571;28;20462;-59
2023/05/05 05:44:47;;;;;;;13.10;6.17;;;13.00;99.90;;;13.13;66.69;95354.91;4993025;28;20499;-60
2023/05/05 05:47:15;;;;;;;10.67;8.23;;;13.00;99.90;;;13.13;66.79;95347.00;4997213;28;21033;-57
2023/05/05 05:49:43;;;;;;;14.60;7.83;;;13.00;99.90;;;13.17;66.75;95345.72;4988322;28;20918;-59
2023/05/05 05:52:11;;;;;;;10.37;6.40;;;13.10;99.90;;;13.21;67.21;95347.09;4991066;28;20474;-70
2023/05/05 05:54:38;;;;;;;10.20;7.10;;;13.10;99.90;;;13.28;67.17;95350.84;4992091;28;20677;-70
2023/05/05 05:57:05;;;;;;;6.03;5.53;;;13.20;99.90;;;13.36;67.27;95354.59;4990001;28;20482;-58
2023/05/05 05:59:33;;;;;;;10.27;6.47;;;13.30;99.90;;;13.42;66.97;95348.75;4992460;28;20492;-58
2023/05/05 06:02:00;;;;;;;7.07;6.27;;;13.30;99.90;;;13.48;66.83;95347.31;4994449;28;20478;-58
2023/05/05 06:04:28;;;;;;;6.90;6.30;;;13.40;99.90;;;13.53;66.23;95351.19;4986512;28;20466;-71
2023/05/05 06:06:56;;;;;;;5.70;5.10;;;13.40;99.90;;;13.59;66.38;95355.88;4991955;28;20976;-59
2023/05/05 06:09:24;;;;;;;5.90;5.30;;;13.50;99.90;;;13.67;66.42;95354.34;4991585;28;20467;-57
2023/05/05 06:11:51;;;;;;;5.90;5.40;;;13.50;99.90;;;13.74;66.03;95352.75;4990237;28;20513;-59
2023/05/05 06:14:18;;;;;;;11.13;5.20;;;13.60;99.90;;;13.78;66.07;95354.13;4992009;28;20477;-57
2023/05/05 06:16:46;;;;;;;6.20;4.70;;;13.70;99.90;;;13.85;66.12;95360.50;4995273;28;20992;-71
2023/05/05 06:19:13;;;;;;;5.87;4.70;;;13.70;99.90;;;13.93;66.02;95352.66;4991358;28;20901;-69
2023/05/05 06:21:40;;;;;;;8.73;5.57;;;13.80;99.90;;;14.03;65.78;95357.88;4992829;28;20450;-70
2023/05/05 06:24:09;;;;;;;8.73;5.30;;;13.90;99.90;;;14.15;65.64;95359.31;4995448;28;20561;-57
2023/05/05 06:26:36;;;;;;;7.63;5.90;;;14.00;99.90;;;14.27;nan;95357.28;4996578;28;20565;-57
2023/05/05 06:29:03;;;;;;;10.13;6.47;;;14.10;99.90;;;14.40;65.62;95354.25;4994605;28;20460;-57
2023/05/05 06:31:31;;;;;;;6.97;6.00;;;14.30;99.90;;;14.51;64.82;95364.63;4994629;28;20464;-57
2023/05/05 06:33:58;;;;;;;11.73;5.47;;;14.40;99.90;;;14.65;64.60;95365.09;4999470;28;20581;-60
2023/05/05 06:36:26;;;;;;;5.57;5.13;;;14.50;99.90;;;14.77;63.94;95357.75;4994390;28;20446;-70
2023/05/05 06:38:54;;;;;;;6.80;5.47;;;14.60;99.90;;;14.89;64.00;95359.19;4995014;28;20502;-58
2023/05/05 06:41:22;;;;;;;6.03;5.23;;;14.70;99.90;;;15.05;63.42;95355.81;4996775;28;20461;-59
2023/05/05 06:43:50;;;;;;;8.57;5.27;;;14.90;99.90;;;15.19;62.74;95355.22;4995075;28;20550;-69
2023/05/05 06:46:17;;;;;;;7.17;3.80;;;15.00;99.90;;;15.32;61.67;95353.97;4988087;28;20500;-69
2023/05/05 06:48:44;;;;;;;7.00;4.47;;;15.20;99.90;;;15.39;60.85;95347.06;4994673;28;20598;-57
2023/05/05 06:51:11;;;;;;;3.93;3.63;;;15.30;99.90;;;15.49;61.61;95350.44;4997964;28;20455;-59
2023/05/05 06:53:39;;;;;;;5.77;4.30;;;15.40;99.90;;;15.66;61.51;95348.69;4995599;28;20477;-59
2023/05/05 06:56:06;;;;;;;4.03;3.73;;;15.50;99.90;;;15.87;61.34;95350.13;4996813;28;20471;-59
2023/05/05 06:58:35;;;;;;;3.60;3.30;;;15.70;99.90;;;16.09;60.63;95340.72;4996868;28;20561;-70
2023/05/05 07:01:02;;;;;;;8.87;2.73;;;15.90;99.90;;;16.35;60.01;95351.22;4991152;28;20578;-60
2023/05/05 07:03:30;;;;;;;3.17;2.97;;;16.00;99.90;;;16.60;59.56;95338.81;4995836;28;20481;-59
2023/05/05 07:05:57;;;;;;;2.40;2.30;;;16.30;99.70;;;16.85;58.11;95336.16;4994565;28;20572;-71
2023/05/05 07:08:25;;;;;;;4.73;2.77;;;16.60;98.70;;;17.01;58.46;95351.28;4993913;28;20478;-59
2023/05/05 07:10:53;;;;;;;2.83;2.63;;;16.80;98.40;;;17.15;57.43;95337.31;4992357;28;20457;-60
2023/05/05 07:13:20;;;;;;;3.53;2.23;;;16.90;98.00;;;17.30;57.65;95328.63;4991705;28;20989;-71
2023/05/05 07:15:49;;;;;;;6.40;2.30;;;17.00;97.80;;;17.44;56.62;95327.91;4996329;28;20446;-60
2023/05/05 07:18:16;;;;;;;3.37;2.83;;;17.20;97.30;;;17.58;56.93;95330.88;4997868;28;20478;-59
2023/05/05 07:20:44;;;;;;;2.60;2.23;;;17.30;96.90;;;17.70;55.82;95337.47;4991075;28;20461;-59
2023/05/05 07:23:11;;;;;;;1.83;1.73;;;17.40;96.30;;;17.76;55.71;95335.97;4996038;28;20477;-59
2023/05/05 07:25:39;;;;;;;3.20;1.60;;;17.60;96.40;;;17.68;54.87;95334.19;4996507;28;20489;-71
2023/05/05 07:28:06;;;;;;;1.70;1.60;;;17.50;94.90;;;17.63;54.18;95337.34;4991723;28;20474;-59
2023/05/05 07:30:33;;;;;;;1.70;1.60;;;17.40;94.70;;;17.68;54.70;95336.84;4991405;28;20461;-59
2023/05/05 07:33:02;;;;;;;5.97;1.80;;;17.50;95.10;;;17.82;55.13;95327.31;4992283;28;20469;-72
2023/05/05 07:35:30;;;;;;;3.77;1.90;;;17.60;95.20;;;18.02;55.10;95330.41;4990172;28;20460;-72
2023/05/05 07:37:57;;;;;;;2.20;2.10;;;17.80;95.10;;;18.26;54.26;95337.41;4988922;28;20473;-59
2023/05/05 07:40:25;;;;;;;5.43;1.50;;;17.90;95.20;;;18.54;54.03;95342.22;4988465;28;20508;-58
2023/05/05 07:42:52;;;;;;;3.03;1.87;;;18.30;94.70;;;18.83;53.59;95343.34;4996070;28;20646;-72
2023/05/05 07:45:20;;;;;;;4.10;2.63;;;18.50;94.40;;;19.14;53.41;95345.91;4993389;28;20535;-72
2023/05/05 07:47:47;;;;;;;2.73;2.50;;;18.80;94.20;;;19.42;52.54;95342.63;4993485;28;20481;-72
2023/05/05 07:50:16;;;;;;;2.23;2.03;;;19.10;93.40;;;19.74;51.78;95343.28;4992022;28;20454;-73
2023/05/05 07:52:44;;;;;;;2.07;1.97;;;19.40;92.80;;;20.08;51.47;95344.53;4991659;28;20565;-59
2023/05/05 07:55:11;;;;;;;3.17;2.87;;;19.70;92.50;;;20.38;50.96;95335.44;4993726;28;20457;-72
2023/05/05 07:57:38;;;;;;;2.50;2.30;;;20.00;92.00;;;20.57;49.76;95338.50;4997534;28;20469;-59
2023/05/05 08:00:07;;;;;;;9.17;3.30;;;20.20;90.90;;;20.72;49.57;95336.63;4992537;28;20556;-74
2023/05/05 08:02:35;;;;;;;4.57;3.00;;;20.40;90.30;;;20.81;48.93;95333.84;4996410;28;20518;-58
2023/05/05 08:05:03;;;;;;;2.10;1.97;;;20.50;88.60;;;20.87;48.81;95341.09;4995096;28;20461;-72
2023/05/05 08:07:32;;;;;;;3.10;2.73;;;20.60;87.90;;;20.88;48.89;95346.25;4994778;28;20485;-59
2023/05/05 08:09:59;;;;;;;7.20;2.37;;;20.60;87.60;;;20.95;48.19;95343.63;4992629;28;20459;-74
2023/05/05 08:12:26;;;;;;;2.63;2.43;;;20.70;85.60;;;21.11;47.36;95339.84;4988433;28;20558;-73
2023/05/05 08:14:54;;;;;;;1.70;1.60;;;20.70;83.60;;;21.14;46.90;95334.91;4995623;28;20965;-72
2023/05/05 08:17:21;;;;;;;2.47;2.27;;;20.80;82.40;;;21.25;46.73;95335.41;4995434;28;20474;-60
2023/05/05 08:19:51;;;;;;;1.93;1.83;;;20.90;82.60;;;21.33;46.93;95337.13;4993541;28;20457;-72
2023/05/05 08:22:19;;;;;;;1.97;1.87;;;21.00;81.80;;;21.49;47.29;95326.97;4993538;28;20469;-72
2023/05/05 08:24:47;;;;;;;1.77;1.67;;;21.20;82.20;;;21.77;46.63;95323.41;4994626;28;20940;-71
2023/05/05 08:27:15;;;;;;;2.60;2.40;;;21.40;81.40;;;22.07;46.22;95331.16;4998886;28;20545;-59
2023/05/05 08:29:42;;;;;;;2.37;1.90;;;21.70;81.20;;;22.40;46.32;95324.28;4992759;28;20454;-73
2023/05/05 08:32:09;;;;;;;3.73;1.97;;;21.90;79.70;;;22.66;45.11;95321.66;4996072;28;20474;-73
2023/05/05 08:34:37;;;;;;;5.27;2.07;;;22.30;77.00;;;22.85;44.75;95319.22;4998061;28;21100;-59
2023/05/05 08:37:04;;;;;;;1.77;1.67;;;22.50;75.80;;;22.89;42.88;95318.59;4996044;28;20473;-73
2023/05/05 08:39:31;;;;;;;7.73;2.17;;;22.60;72.30;;;22.85;42.99;95319.22;4993913;28;20449;-61
2023/05/05 08:42:01;;;;;;;2.57;2.27;;;22.60;71.70;;;22.88;43.98;95314.28;4999943;28;20915;-59
2023/05/05 08:44:28;;;;;;;1.93;1.83;;;22.60;72.90;;;22.98;43.95;95313.03;4996348;28;20454;-73
2023/05/05 08:46:56;;;;;;;1.90;1.80;;;22.70;72.40;;;22.97;43.65;95316.75;5000006;28;20490;-72
2023/05/05 08:49:23;;;;;;;2.60;1.63;;;22.70;70.40;;;22.89;43.29;95318.59;4997208;28;20464;-59
2023/05/05 08:51:51;;;;;;;2.23;1.73;;;22.60;70.40;;;22.78;44.06;95313.84;4993748;28;20519;-73
2023/05/05 08:54:19;;;;;;;1.87;1.63;;;22.60;71.10;;;22.69;43.57;95312.41;4998517;28;20457;-59
2023/05/05 08:56:48;;;;;;;1.90;1.80;;;22.50;70.60;;;22.60;43.76;95314.44;4996192;28;20461;-57
2023/05/05 08:59:19;;;;;;;2.37;2.17;;;22.40;71.20;;;22.58;43.78;95308.47;4996798;28;20464;-73
2023/05/05 09:01:46;;;;;;;1.67;1.57;;;22.30;70.70;;;22.51;43.91;95315.66;4993809;28;20443;-60
2023/05/05 09:04:13;;;;;;;2.80;1.83;;;22.20;69.80;;;22.40;44.07;95311.72;4991657;28;20538;-59
2023/05/05 09:06:41;;;;;;;3.00;1.30;;;22.20;69.90;;;22.30;43.48;95308.56;4998673;28;21022;-58
2023/05/05 09:09:08;;;;;;;1.43;1.33;;;22.10;69.40;;;22.23;44.58;95311.25;4998207;28;20564;-59
2023/05/05 09:11:36;;;;;;;2.13;1.30;;;22.00;70.60;;;22.13;44.59;95303.56;4995941;28;20455;-72
2023/05/05 09:14:03;;;;;;;2.20;2.10;;;21.90;70.60;;;22.00;43.49;95306.22;4994205;28;20469;-73
2023/05/05 09:16:32;;;;;;;4.07;1.70;;;21.80;68.10;;;21.97;44.14;95301.28;4995111;28;20451;-72
2023/05/05 09:19:03;;;;;;;4.13;1.90;;;21.70;69.80;;;22.10;44.13;95295.13;4997684;28;20469;-72
2023/05/05 09:21:31;;;;;;;3.30;1.30;;;21.80;70.40;;;22.35;42.60;95296.25;4991067;28;20450;-61
2023/05/05 09:24:06;;;;;;;1.33;1.23;;;22.00;68.20;;;22.59;42.53;95294.03;4995334;28;20476;-72
2023/05/05 09:26:34;;;;;;;1.70;1.60;;;22.20;69.00;;;22.61;41.23;95291.97;4995621;28;20597;-58
2023/05/05 09:29:02;;;;;;;4.20;1.97;;;22.30;64.50;;;22.52;41.99;95299.38;5001930;28;20498;-59
2023/05/05 09:31:32;;;;;;;1.70;1.60;;;22.30;65.90;;;22.47;42.24;95293.78;4997728;28;20566;-74
2023/05/05 09:34:00;;;;;;;1.70;1.60;;;22.20;66.70;;;22.41;42.64;95291.13;4995447;28;20583;-61
2023/05/05 09:36:47;;;;;;;1.70;1.60;;;22.20;65.80;;;22.27;40.73;95284.88;4994760;28;20454;-59
2023/05/05 09:39:14;;;;;;;2.13;1.70;;;22.10;63.30;;;22.14;42.93;95291.03;4995572;28;20517;-59
2023/05/05 09:41:42;;;;;;;1.80;1.70;;;21.90;66.10;;;22.10;42.22;95289.75;4998765;28;20481;-59
2023/05/05 09:44:10;;;;;;;1.63;1.53;;;21.90;66.20;;;22.08;42.86;95286.47;4996666;28;20454;-59
2023/05/05 09:46:38;;;;;;;1.90;1.80;;;21.80;65.70;;;22.07;42.44;95274.91;4994144;28;20515;-59
2023/05/05 09:49:14;;;;;;;2.13;2.03;;;21.80;65.80;;;22.09;42.37;95280.06;4996072;28;20461;-57
2023/05/05 09:51:41;;;;;;;2.93;1.40;;;21.80;66.20;;;22.11;42.49;95275.34;4996220;28;20460;-59
2023/05/05 09:54:09;;;;;;;1.50;1.40;;;21.80;66.10;;;22.08;43.03;95281.94;4994364;28;20484;-59
2023/05/05 09:56:40;;;;;;;3.90;1.33;;;21.80;66.40;;;22.00;42.16;95284.78;4998364;28;20458;-59
2023/05/05 09:59:10;;;;;;;2.10;1.87;;;21.80;65.00;;;21.90;41.91;95278.97;4997025;28;20461;-60
2023/05/05 10:01:42;;;;;;;2.03;1.83;;;21.70;64.10;;;21.73;40.66;95273.97;4992590;28;20454;-59
2023/05/05 10:04:10;;;;;;;1.57;1.47;;;21.60;62.60;;;21.56;42.40;95275.31;4993024;28;20483;-59
2023/05/05 10:06:43;;;;;;;4.17;2.00;;;21.40;64.40;;;21.42;42.28;95277.88;4992999;28;20486;-74
2023/05/05 10:09:10;;;;;;;1.50;1.40;;;21.20;64.50;;;21.35;42.11;95271.69;4996885;28;20453;-74
2023/05/05 10:11:38;;;;;;;1.60;1.50;;;21.10;63.60;;;21.31;42.77;95276.59;4995872;28;20454;-72
2023/05/05 10:14:05;;;;;;;2.23;2.13;;;21.10;64.50;;;21.29;42.29;95270.63;4994332;28;20450;-74
2023/05/05 10:16:33;;;;;;;1.70;1.60;;;21.00;63.90;;;21.24;42.51;95259.69;4990233;28;20450;-60
2023/05/05 10:19:03;;;;;;;1.83;1.60;;;21.00;64.30;;;21.17;42.27;95253.47;4996635;28;20470;-72
2023/05/05 10:21:33;;;;;;;2.10;1.70;;;21.00;64.30;;;21.09;42.58;95257.13;4989075;28;20929;-73
2023/05/05 10:24:07;;;;;;;1.87;1.70;;;20.90;64.60;;;21.15;42.62;95255.53;4995198;28;20465;-72